< < Back
Terminal Aerodrome Forecast


Current Version              Previous Versions:   1  2  3  4  5  6  7  8  9  

Terminal Aerodrome Forecast

039
FTUS44 KOHX 300500
TAFCSV
TAF
KCSV 300525Z 3006/3106 00000KT P6SM SKC
      TEMPO 3008/3012 3SM BR
     FM301400 35005KT P6SM FEW060 SCT250
     FM310100 00000KT P6SM SKC=

Latest METAR

740
SAUS70 KWBC 301700 RRC
MTRCSV
METAR KCSV 301653Z AUTO 07006KT 10SM FEW036 23/12 A3015 RMK AO2 SLP196
T02280117


USA.gov is the U.S. government's official web portal to all federal, state and local government web resources and services.